INFORMACIÓN METAR y TAF
METAR FOR ENBR
ADDS - METARS form results

(0741 UTC 15 April 2021)
Data provider http://aviationweather.gov/metar/data/
 
METAR text: ENBR 150720Z VRB02KT CAVOK 04/M01 Q1035 RMK WIND 1200FT 14004KT
Conditions at: ENBR (BERGEN/FLESLAND , NO) observed 0720 UTC 15 April 2021
Temperature: 4.0°C (39°F)
Dewpoint: -1.0°C (30°F) [RH = 70%]
Pressure (altimeter): 30.56 inches Hg (1035.0 mb)
Winds: variable direction winds at 2 MPH (2 knots; 1.0 m/s)
Visibility: 6 or more miles (10+ km)
Ceiling: ceiling and visibility are OK
Clouds: unknown
Weather: no significant weather observed at this time

METAR text: ENBR 150650Z 00000KT CAVOK 03/M01 Q1035 NOSIG RMK WIND 1200FT 16004KT
Conditions at: ENBR (BERGEN/FLESLAND , NO) observed 0650 UTC 15 April 2021
Temperature: 3.0°C (37°F)
Dewpoint: -1.0°C (30°F) [RH = 75%]
Pressure (altimeter): 30.56 inches Hg (1035.0 mb)
Winds: calm
Visibility: 6 or more miles (10+ km)
Ceiling: ceiling and visibility are OK
Clouds: unknown
Weather: no significant weather observed at this time

Forecast for: ENBR (BERGEN/FLESLAND , NO)
Text: TAF ENBR 1506/1606 VRB05KT CAVOK
Forecast period: 0600 UTC 15 April 2021 to 0600 UTC 16 April 2021
Forecast type: FROM: standard forecast or significant change
Winds: variable direction winds at 6 MPH (5 knots; 2.6 m/s)
Visibility: 6 or more miles (10+ km)
Ceiling: unknown
Clouds: missing
Weather: NSW  (no significant weather)

 MAPA DE AEROPUERTO

 INFORMACIÓN DE PISTA
Pista 17 Longitud 9810 ft Ancho 148 ft
Elevación 165 ft Umbral desplazado 886 ft Rumbo de pista 171
Pista 35 Longitud 9810 ft Ancho 148 ft
Elevación 146 ft Umbral desplazado 889 ft Rumbo de pista 351

 FRECUANCIAS DEL AEROPUERTO
Tipo APP Nombre RADAR Frecuencia 121 MHZ
Tipo ARR Nombre ARR Frecuencia 125 MHZ
Tipo ATIS Nombre ATIS Frecuencia 125.25 MHZ
Tipo DIR Nombre DIRECTOR Frecuencia 118.85 MHZ
Tipo GND Nombre GND Frecuencia 121.9 MHZ
Tipo TWR Nombre TWR Frecuencia 119.1 MHZ

 RADIO AYUDAS DEL AEROPUERTO
Tipo NDB Nombre Askoy Frecuencia 360 KHZ
Tipo NDB Nombre Bratta Frecuencia 336 KHZ
Tipo TACAN Nombre Flesland Frecuencia 114500 KHZ
Tipo VOR-DME Nombre Flesland Frecuencia 115550 KHZ
Tipo VOR-DME Nombre Vollo Frecuencia 114850 KHZ



Powered by Virtual Airlines Manager [v2.6.2]